createdAt,value
2023-05-31T00:04:45.848Z,99302.72
2023-05-31T00:09:50.519Z,99310.88
2023-05-31T00:14:53.946Z,99291.78
2023-05-31T00:19:57.174Z,99303.63
2023-05-31T00:25:01.996Z,99317.09
2023-05-31T00:30:08.045Z,99317.75
2023-05-31T00:35:11.458Z,99302.91
2023-05-31T00:40:16.700Z,99316.97
2023-05-31T00:45:20.133Z,99327.69
2023-05-31T00:50:23.892Z,99342.16
2023-05-31T00:55:29.319Z,99328.72
2023-05-31T01:00:33.749Z,99333.56
2023-05-31T01:05:37.065Z,99330.75
2023-05-31T01:10:41.776Z,99329.91
2023-05-31T01:15:52.683Z,99323.38
2023-05-31T01:20:59.494Z,99316.84
2023-05-31T01:26:37.771Z,99323.41
2023-05-31T01:31:43.879Z,99311.16
2023-05-31T01:36:47.229Z,99311.50
2023-05-31T01:41:54.141Z,99307.72
2023-05-31T01:46:58.321Z,99307.72
2023-05-31T01:52:02.168Z,99303.13
2023-05-31T01:57:08.330Z,99282.03
2023-05-31T02:02:12.450Z,99318.41
2023-05-31T02:07:16.003Z,99316.56
2023-05-31T02:12:21.034Z,99321.00
2023-05-31T02:17:25.097Z,99282.91
2023-05-31T02:22:28.471Z,99310.59
2023-05-31T02:27:33.277Z,99304.16
2023-05-31T02:32:38.542Z,99310.53
2023-05-31T02:37:42.313Z,99307.63
2023-05-31T02:42:46.973Z,99299.34
2023-05-31T02:47:50.473Z,99312.00
2023-05-31T02:52:53.921Z,99323.91
2023-05-31T02:57:58.639Z,99328.31
2023-05-31T03:03:02.118Z,99319.47
2023-05-31T03:08:05.622Z,99316.38
2023-05-31T03:13:11.278Z,99328.09
2023-05-31T03:18:14.649Z,99328.88
2023-05-31T03:23:18.034Z,99326.41
2023-05-31T03:28:23.145Z,99326.19
2023-05-31T03:33:26.507Z,99317.66
2023-05-31T03:38:30.541Z,99313.19
2023-05-31T03:43:35.736Z,99314.25
2023-05-31T03:48:39.345Z,99329.06
2023-05-31T03:53:42.728Z,99323.50
2023-05-31T03:58:48.859Z,99341.81
2023-05-31T04:03:52.549Z,99345.94
2023-05-31T04:08:56.162Z,99346.22
2023-05-31T04:14:01.351Z,99334.16
2023-05-31T04:19:05.016Z,99329.28
2023-05-31T04:24:09.185Z,99325.31
2023-05-31T04:29:14.600Z,99335.44
2023-05-31T04:34:20.490Z,99332.53
2023-05-31T04:39:24.967Z,99338.81
2023-05-31T04:44:29.842Z,99351.16
2023-05-31T04:49:40.210Z,99348.59
2023-05-31T04:54:55.666Z,99362.53
2023-05-31T05:00:00.891Z,99379.69
2023-05-31T05:05:05.665Z,99382.66
2023-05-31T05:10:09.841Z,99373.25
2023-05-31T05:15:14.946Z,99374.66
2023-05-31T05:20:19.540Z,99370.09
2023-05-31T05:25:23.901Z,99352.22
2023-05-31T05:30:28.919Z,99357.00
2023-05-31T05:35:32.601Z,99350.03
2023-05-31T05:40:36.295Z,99350.59
2023-05-31T05:45:41.400Z,99360.69
2023-05-31T05:50:44.843Z,99368.50
2023-05-31T05:55:51.352Z,99369.81
2023-05-31T06:00:56.736Z,99358.47
2023-05-31T06:06:00.272Z,99340.72
2023-05-31T06:11:04.340Z,99344.91
2023-05-31T06:16:09.370Z,99324.69
2023-05-31T06:21:12.934Z,99306.38
2023-05-31T06:26:16.462Z,99291.69
2023-05-31T06:31:21.932Z,99286.34
2023-05-31T06:36:25.991Z,99275.66
2023-05-31T06:41:30.691Z,99266.13
2023-05-31T06:46:35.638Z,99279.00
2023-05-31T06:51:39.271Z,99269.88
2023-05-31T06:56:43.106Z,99280.75
2023-05-31T07:01:48.048Z,99280.88
2023-05-31T07:06:51.640Z,99265.94
2023-05-31T07:11:55.075Z,99274.69
2023-05-31T07:16:59.888Z,99277.91
2023-05-31T07:22:03.446Z,99277.78
2023-05-31T07:27:07.721Z,99270.97
2023-05-31T07:32:12.688Z,99286.88
2023-05-31T07:37:16.246Z,99278.31
2023-05-31T07:42:20.086Z,99289.09
2023-05-31T07:47:25.615Z,99272.47
2023-05-31T07:52:29.126Z,99269.16
2023-05-31T07:57:32.654Z,99267.75
2023-05-31T08:02:37.838Z,99266.94
2023-05-31T08:07:41.756Z,99261.75
2023-05-31T08:12:45.486Z,99262.63
2023-05-31T08:17:50.400Z,99247.84
2023-05-31T08:22:54.426Z,99233.09
2023-05-31T08:27:57.908Z,99225.31
2023-05-31T08:33:02.879Z,99226.00
2023-05-31T08:38:06.455Z,99213.41
2023-05-31T09:13:08.991Z,99252.72
2023-05-31T09:18:17.518Z,99274.94
2023-05-31T09:23:21.642Z,99273.72
2023-05-31T09:28:26.983Z,99290.44
2023-05-31T09:33:40.306Z,99294.22
2023-05-31T09:38:43.953Z,99280.81
2023-05-31T09:43:50.494Z,99319.34
2023-05-31T09:49:01.572Z,99312.38
2023-05-31T09:54:11.917Z,99323.19
2023-05-31T09:59:17.884Z,99336.56
2023-05-31T10:04:22.507Z,99324.50
2023-05-31T10:09:26.203Z,99315.38
2023-05-31T10:14:36.991Z,99319.75
2023-05-31T10:19:47.820Z,99304.59
2023-05-31T10:24:54.979Z,99317.28
2023-05-31T10:30:06.388Z,99308.34
2023-05-31T10:35:11.962Z,99310.00
2023-05-31T10:40:20.322Z,99324.03
2023-05-31T10:45:30.897Z,99336.88
2023-05-31T10:50:34.525Z,99353.22
2023-05-31T10:55:43.582Z,99344.06
2023-05-31T11:00:50.276Z,99347.09
2023-05-31T11:05:58.288Z,99354.78
2023-05-31T11:11:46.250Z,99355.78
2023-05-31T11:17:18.748Z,99371.50
2023-05-31T11:22:28.211Z,99372.56
2023-05-31T11:27:39.293Z,99373.88
2023-05-31T11:33:20.227Z,99381.41
2023-05-31T11:38:23.996Z,99381.09
2023-05-31T11:43:28.294Z,99392.50
2023-05-31T11:48:47.175Z,99397.16
2023-05-31T11:53:50.867Z,99402.34
2023-05-31T11:58:54.356Z,99417.47
2023-05-31T12:04:03.050Z,99418.97
2023-05-31T12:09:12.267Z,99419.72
2023-05-31T12:14:17.617Z,99432.38
2023-05-31T12:19:23.228Z,99402.53
2023-05-31T12:24:29.607Z,99408.38
2023-05-31T12:29:34.362Z,99422.03
2023-05-31T12:34:40.433Z,99412.53
2023-05-31T12:39:43.854Z,99425.59
2023-05-31T12:44:47.400Z,99421.19
2023-05-31T12:49:52.283Z,99416.78
2023-05-31T12:54:55.671Z,99426.84
2023-05-31T13:00:04.845Z,99413.94
2023-05-31T13:05:12.842Z,99439.59
2023-05-31T13:10:16.889Z,99440.94
2023-05-31T13:15:23.556Z,99443.75
2023-05-31T13:20:28.479Z,99442.88
2023-05-31T13:25:31.919Z,99444.53
2023-05-31T13:30:35.356Z,99442.00
2023-05-31T13:35:41.324Z,99446.97
2023-05-31T13:40:44.891Z,99443.16
2023-05-31T13:45:48.667Z,99428.50
2023-05-31T13:50:53.553Z,99425.47
2023-05-31T13:56:03.148Z,99403.09
2023-05-31T14:01:09.134Z,99408.25
2023-05-31T14:06:14.323Z,99408.16
2023-05-31T14:11:18.448Z,99406.41
2023-05-31T14:16:23.915Z,99402.94
2023-05-31T14:21:29.394Z,99395.91
2023-05-31T14:26:32.902Z,99388.41
2023-05-31T14:31:38.451Z,99388.69
2023-05-31T14:36:43.788Z,99379.03
2023-05-31T14:41:47.765Z,99375.38
2023-05-31T14:46:53.285Z,99377.78
2023-05-31T14:51:58.843Z,99366.25
2023-05-31T14:57:03.777Z,99370.28
2023-05-31T15:02:08.622Z,99357.25
2023-05-31T15:07:14.706Z,99353.00
2023-05-31T15:12:18.283Z,99355.28
2023-05-31T15:17:21.756Z,99349.34
2023-05-31T15:22:26.712Z,99352.56
2023-05-31T15:27:30.096Z,99347.91
2023-05-31T15:32:33.896Z,99347.78
2023-05-31T15:37:38.765Z,99358.00
2023-05-31T15:42:42.224Z,99340.13
2023-05-31T15:47:45.846Z,99351.13
2023-05-31T15:52:50.880Z,99351.97
2023-05-31T15:57:54.409Z,99346.31
2023-05-31T16:02:58.102Z,99348.88
2023-05-31T16:08:06.410Z,99313.78
2023-05-31T16:13:10.014Z,99331.81
2023-05-31T16:18:13.484Z,99342.47
2023-05-31T16:23:18.673Z,99344.31
2023-05-31T16:28:22.144Z,99347.88
2023-05-31T16:33:25.913Z,99337.63
2023-05-31T16:38:31.054Z,99339.78
2023-05-31T16:43:34.512Z,99341.84
2023-05-31T16:48:40.290Z,99338.91
2023-05-31T16:53:45.364Z,99338.25
2023-05-31T16:58:49.431Z,99338.41
2023-05-31T17:03:53.195Z,99345.81
2023-05-31T17:08:58.045Z,99346.28
2023-05-31T17:14:01.453Z,99342.13
2023-05-31T17:19:05.234Z,99340.81
2023-05-31T17:24:10.209Z,99357.31
2023-05-31T17:29:14.256Z,99356.38
2023-05-31T17:34:17.710Z,99356.47
2023-05-31T17:39:22.544Z,99361.25
2023-05-31T17:44:25.988Z,99359.06
2023-05-31T17:49:29.470Z,99370.13
2023-05-31T17:54:34.324Z,99367.81
2023-05-31T17:59:38.890Z,99371.19
2023-05-31T18:04:42.314Z,99379.00
2023-05-31T18:09:47.602Z,99378.81
2023-05-31T18:14:51.200Z,99380.16
2023-05-31T18:19:54.869Z,99379.69
2023-05-31T18:24:59.778Z,99381.59
2023-05-31T18:30:04.260Z,99375.63
2023-05-31T18:35:09.230Z,99374.38
2023-05-31T18:40:14.554Z,99378.06
2023-05-31T18:45:18.011Z,99380.19
2023-05-31T18:50:21.934Z,99384.09
2023-05-31T18:55:27.087Z,99366.81
2023-05-31T19:00:30.678Z,99379.72
2023-05-31T19:05:34.237Z,99375.97
2023-05-31T19:10:39.178Z,99368.19
2023-05-31T19:15:42.580Z,99367.09
2023-05-31T19:20:49.374Z,99354.84
2023-05-31T19:25:54.863Z,99349.13
2023-05-31T19:30:59.217Z,99354.47
2023-05-31T19:36:03.232Z,99346.59
2023-05-31T19:41:08.696Z,99347.72
2023-05-31T19:46:18.145Z,99348.84
2023-05-31T19:51:23.154Z,99351.00
2023-05-31T19:56:28.198Z,99355.25
2023-05-31T20:01:32.005Z,99355.50
2023-05-31T20:06:35.786Z,99347.09
2023-05-31T20:11:40.615Z,99348.19
2023-05-31T20:16:44.124Z,99351.06
2023-05-31T20:21:49.244Z,99353.81
2023-05-31T20:26:54.249Z,99358.00
2023-05-31T20:31:58.806Z,99362.06
2023-05-31T20:37:02.342Z,99376.44
2023-05-31T20:42:08.024Z,99368.81
2023-05-31T20:47:11.459Z,99368.13
2023-05-31T20:52:14.996Z,99372.66
2023-05-31T20:57:20.888Z,99360.34
2023-05-31T21:02:25.088Z,99373.50
2023-05-31T21:07:28.848Z,99375.13
2023-05-31T21:12:33.632Z,99373.41
2023-05-31T21:17:37.035Z,99374.09
2023-05-31T21:22:40.672Z,99368.91
2023-05-31T21:27:45.535Z,99365.63
2023-05-31T21:32:49.631Z,99374.69
2023-05-31T21:37:53.149Z,99382.00
2023-05-31T21:42:57.887Z,99379.72
2023-05-31T21:48:01.666Z,99367.72
2023-05-31T21:53:05.351Z,99370.81
2023-05-31T21:58:10.138Z,99371.50
2023-05-31T22:03:13.690Z,99367.63
2023-05-31T22:08:17.056Z,99374.56
2023-05-31T22:13:22.970Z,99370.78
2023-05-31T22:18:32.071Z,99377.22
2023-05-31T22:23:35.922Z,99375.41
2023-05-31T22:28:41.484Z,99383.78
2023-05-31T22:33:44.984Z,99379.88
2023-05-31T22:38:48.501Z,99377.47
2023-05-31T22:43:53.625Z,99375.69
2023-05-31T22:48:57.266Z,99377.13
2023-05-31T22:54:00.696Z,99370.69
2023-05-31T22:59:05.565Z,99371.09
2023-05-31T23:04:09.782Z,99358.53
2023-05-31T23:09:13.416Z,99359.06
2023-05-31T23:14:18.667Z,99359.75
2023-05-31T23:19:22.473Z,99358.13
2023-05-31T23:24:25.853Z,99361.59
2023-05-31T23:29:30.847Z,99360.78
2023-05-31T23:34:34.402Z,99359.22
2023-05-31T23:39:38.088Z,99357.66
2023-05-31T23:44:43.059Z,99361.19
2023-05-31T23:49:46.664Z,99357.97
2023-05-31T23:54:50.476Z,99359.59
2023-05-31T23:59:55.341Z,99345.53
